createdAt,value
2019-02-15T00:00:07.371Z,62.04
2019-02-15T00:02:35.643Z,62.35
2019-02-15T00:05:04.156Z,61.98
2019-02-15T00:07:32.430Z,62.38
2019-02-15T00:10:00.728Z,63.85
2019-02-15T00:12:28.989Z,63.61
2019-02-15T00:14:57.249Z,63.73
2019-02-15T00:17:33.075Z,63.55
2019-02-15T00:20:03.201Z,63.01
2019-02-15T00:22:31.467Z,63.36
2019-02-15T00:24:59.754Z,63.30
2019-02-15T00:27:28.122Z,63.83
2019-02-15T00:29:56.456Z,63.29
2019-02-15T00:32:24.719Z,63.36
2019-02-15T00:34:53.006Z,63.65
2019-02-15T00:37:21.318Z,64.40
2019-02-15T00:39:49.548Z,65.14
2019-02-15T00:42:17.811Z,63.92
2019-02-15T00:44:46.160Z,62.38
2019-02-15T00:47:24.843Z,62.86
2019-02-15T00:49:54.901Z,63.34
2019-02-15T00:52:27.519Z,63.53
2019-02-15T00:55:00.436Z,63.56
2019-02-15T00:57:33.378Z,62.94
2019-02-15T01:00:19.381Z,62.70
2019-02-15T01:02:55.384Z,62.93
2019-02-15T01:05:25.356Z,63.77
2019-02-15T01:07:55.303Z,62.47
2019-02-15T01:10:25.346Z,62.15
2019-02-15T01:12:55.258Z,63.68
2019-02-15T01:15:23.964Z,64.41
2019-02-15T01:17:52.249Z,65.18
2019-02-15T01:20:20.586Z,63.03
2019-02-15T01:22:48.881Z,63.70
2019-02-15T01:25:17.252Z,64.88
2019-02-15T01:27:47.214Z,62.23
2019-02-15T01:30:29.487Z,63.15
2019-02-15T01:33:14.469Z,63.63
2019-02-15T01:35:44.476Z,62.63
2019-02-15T01:38:22.981Z,64.21
2019-02-15T01:41:04.564Z,63.07
2019-02-15T01:43:49.421Z,64.74
2019-02-15T01:46:21.867Z,63.73
2019-02-15T01:48:50.158Z,63.90
2019-02-15T01:51:18.515Z,64.56
2019-02-15T01:53:46.785Z,65.19
2019-02-15T01:56:15.144Z,65.75
2019-02-15T01:58:43.408Z,65.99
2019-02-15T02:01:13.502Z,65.79
2019-02-15T02:03:41.781Z,67.16
2019-02-15T02:06:10.051Z,67.44
2019-02-15T02:08:38.335Z,67.30
2019-02-15T02:11:06.612Z,67.54
2019-02-15T02:13:34.879Z,66.38
2019-02-15T02:16:03.240Z,66.82
2019-02-15T02:18:31.608Z,67.37
2019-02-15T02:21:00.075Z,67.27
2019-02-15T02:23:28.435Z,67.14
2019-02-15T02:25:56.877Z,66.50
2019-02-15T02:28:25.215Z,67.54
2019-02-15T02:30:53.494Z,66.97
2019-02-15T02:33:21.769Z,65.56
2019-02-15T02:35:50.067Z,65.67
2019-02-15T02:38:18.367Z,66.60
2019-02-15T02:40:46.652Z,66.63
2019-02-15T02:43:14.992Z,66.88
2019-02-15T02:45:43.313Z,66.41
2019-02-15T02:48:11.585Z,66.30
2019-02-15T02:50:39.894Z,66.01
2019-02-15T02:53:08.147Z,66.79
2019-02-15T02:55:36.435Z,67.05
2019-02-15T02:58:04.772Z,66.50
2019-02-15T03:00:33.912Z,65.10
2019-02-15T03:03:02.316Z,66.05
2019-02-15T03:05:30.596Z,65.69
2019-02-15T03:07:58.872Z,65.22
2019-02-15T03:10:27.164Z,65.68
2019-02-15T03:12:55.452Z,65.58
2019-02-15T03:15:23.764Z,64.88
2019-02-15T03:17:52.044Z,65.57
2019-02-15T03:20:30.380Z,61.14
2019-02-15T03:22:50.311Z,63.44
2019-02-15T03:25:18.603Z,65.09
2019-02-15T03:27:47.299Z,64.92
2019-02-15T03:30:15.752Z,63.90
2019-02-15T03:32:44.101Z,65.00
2019-02-15T03:35:12.367Z,65.52
2019-02-15T03:37:58.280Z,65.63
2019-02-15T03:40:28.305Z,65.67
2019-02-15T03:42:56.589Z,65.76
2019-02-15T03:45:24.889Z,64.89
2019-02-15T03:47:53.158Z,62.70
2019-02-15T03:50:21.442Z,62.40
2019-02-15T03:52:49.688Z,63.47
2019-02-15T03:55:17.956Z,70.48
2019-02-15T03:57:46.245Z,70.30
2019-02-15T04:00:14.717Z,70.62
2019-02-15T04:02:43.299Z,71.62
2019-02-15T04:05:11.657Z,66.61
2019-02-15T04:07:39.974Z,64.64
2019-02-15T04:10:09.217Z,64.05
2019-02-15T04:12:37.502Z,64.61
2019-02-15T04:15:07.379Z,66.83
2019-02-15T04:17:35.653Z,65.54
2019-02-15T04:20:06.087Z,65.42
2019-02-15T04:22:34.639Z,66.38
2019-02-15T04:25:03.095Z,66.70
2019-02-15T04:27:31.465Z,66.58
2019-02-15T04:29:59.899Z,66.84
2019-02-15T04:32:28.227Z,66.63
2019-02-15T04:34:56.626Z,66.79
2019-02-15T04:37:26.656Z,66.04
2019-02-15T04:39:54.987Z,65.75
2019-02-15T04:42:23.379Z,65.83
2019-02-15T04:44:51.695Z,67.05
2019-02-15T04:47:19.982Z,66.92
2019-02-15T04:49:48.292Z,67.00
2019-02-15T04:52:16.816Z,67.10
2019-02-15T04:54:45.484Z,67.96
2019-02-15T04:57:14.243Z,67.33
2019-02-15T04:59:42.478Z,67.02
2019-02-15T05:02:11.102Z,68.98
2019-02-15T05:04:39.443Z,68.06
2019-02-15T05:07:07.797Z,66.88
2019-02-15T05:09:36.078Z,67.11
2019-02-15T05:12:04.387Z,66.74
2019-02-15T05:14:32.725Z,65.66
2019-02-15T05:17:01.012Z,66.75
2019-02-15T05:19:29.286Z,65.42
2019-02-15T05:21:57.570Z,65.70
2019-02-15T05:24:25.869Z,67.30
2019-02-15T05:26:54.145Z,66.32
2019-02-15T05:29:22.515Z,67.21
2019-02-15T05:31:50.868Z,68.12
2019-02-15T05:34:19.387Z,68.66
2019-02-15T05:36:47.749Z,68.14
2019-02-15T05:39:16.069Z,68.21
2019-02-15T05:41:44.394Z,67.57
2019-02-15T05:44:12.672Z,66.59
2019-02-15T05:46:41.075Z,66.31
2019-02-15T05:49:09.400Z,65.36
2019-02-15T05:51:37.743Z,66.58
2019-02-15T05:54:06.131Z,66.77
2019-02-15T05:56:34.489Z,68.90
2019-02-15T05:59:02.755Z,68.48
2019-02-15T06:01:31.206Z,67.72
2019-02-15T06:03:59.487Z,66.97
2019-02-15T06:06:27.739Z,68.71
2019-02-15T06:08:56.090Z,68.55
2019-02-15T06:11:24.365Z,68.41
2019-02-15T06:13:52.776Z,67.72
2019-02-15T06:16:21.154Z,68.69
2019-02-15T06:18:49.459Z,70.01
2019-02-15T06:21:17.823Z,68.66
2019-02-15T06:23:46.061Z,68.89
2019-02-15T06:26:15.336Z,66.59
2019-02-15T06:28:43.621Z,67.89
2019-02-15T06:31:11.988Z,67.55
2019-02-15T06:33:40.255Z,67.79
2019-02-15T06:36:08.614Z,65.54
2019-02-15T06:38:36.876Z,66.62
2019-02-15T06:41:05.381Z,67.25
2019-02-15T06:43:33.735Z,68.18
2019-02-15T06:46:02.001Z,69.96
2019-02-15T06:48:30.387Z,68.85
2019-02-15T06:51:01.159Z,68.17
2019-02-15T06:53:29.424Z,67.09
2019-02-15T06:55:57.885Z,67.06
2019-02-15T06:58:26.172Z,67.13
2019-02-15T07:00:56.386Z,66.97
2019-02-15T07:03:30.328Z,66.38
2019-02-15T07:05:58.761Z,68.07
2019-02-15T07:08:27.260Z,67.57
2019-02-15T07:10:55.749Z,66.54
2019-02-15T07:13:24.206Z,65.29
2019-02-15T07:15:52.511Z,66.61
2019-02-15T07:18:20.767Z,67.09
2019-02-15T07:20:49.053Z,66.72
2019-02-15T07:23:17.365Z,66.52
2019-02-15T07:25:46.828Z,65.92
2019-02-15T07:28:15.138Z,66.73
2019-02-15T07:30:43.419Z,67.25
2019-02-15T07:33:11.716Z,66.11
2019-02-15T07:35:40.032Z,66.03
2019-02-15T07:38:08.352Z,65.87
2019-02-15T07:40:37.281Z,65.43
2019-02-15T07:43:05.592Z,65.01
2019-02-15T07:45:42.441Z,64.59
2019-02-15T07:48:03.881Z,65.03
2019-02-15T07:50:32.186Z,63.54
2019-02-15T07:53:00.461Z,64.30
2019-02-15T07:55:28.724Z,64.46
2019-02-15T07:57:57.015Z,64.23
2019-02-15T08:00:25.270Z,64.53
2019-02-15T08:02:53.566Z,63.73
2019-02-15T08:05:23.438Z,63.38
2019-02-15T08:07:51.918Z,62.45
2019-02-15T08:10:20.272Z,63.70
2019-02-15T08:12:48.679Z,63.61
2019-02-15T08:15:16.941Z,64.81
2019-02-15T08:17:45.221Z,63.14
2019-02-15T08:20:13.926Z,62.35
2019-02-15T08:22:42.199Z,62.67
2019-02-15T08:25:10.480Z,61.67
2019-02-15T08:27:38.733Z,61.36
2019-02-15T08:30:09.865Z,61.54
2019-02-15T08:32:38.138Z,61.29
2019-02-15T08:35:09.049Z,61.16
2019-02-15T08:37:37.316Z,60.14
2019-02-15T08:40:08.241Z,59.98
2019-02-15T08:42:36.501Z,59.80
2019-02-15T08:45:07.904Z,60.02
2019-02-15T08:47:39.670Z,60.26
2019-02-15T08:50:08.937Z,60.03
2019-02-15T08:52:37.326Z,60.57
2019-02-15T08:55:10.956Z,60.29
2019-02-15T08:57:39.234Z,59.35
2019-02-15T09:00:12.282Z,58.82
2019-02-15T09:02:40.545Z,59.42
2019-02-15T09:05:11.077Z,58.43
2019-02-15T09:07:39.343Z,57.64
2019-02-15T09:10:10.220Z,58.36
2019-02-15T09:12:38.509Z,57.68
2019-02-15T09:15:21.840Z,57.41
2019-02-15T09:17:50.145Z,57.60
2019-02-15T09:20:18.424Z,57.75
2019-02-15T09:22:46.712Z,57.44
2019-02-15T09:25:15.138Z,56.40
2019-02-15T09:27:45.058Z,56.56
2019-02-15T09:30:14.375Z,55.85
2019-02-15T09:32:42.647Z,54.91
2019-02-15T09:35:12.057Z,55.44
2019-02-15T09:37:40.395Z,55.52
2019-02-15T09:40:10.115Z,54.91
2019-02-15T09:42:38.410Z,54.30
2019-02-15T09:45:09.830Z,53.91
2019-02-15T09:47:38.111Z,54.35
2019-02-15T09:50:09.726Z,53.92
2019-02-15T09:52:39.036Z,53.54
2019-02-15T09:55:07.374Z,53.31
2019-02-15T09:57:35.655Z,52.29
2019-02-15T10:00:05.361Z,52.41
2019-02-15T10:02:33.622Z,52.35
2019-02-15T10:05:01.920Z,51.63
2019-02-15T10:07:30.183Z,52.08
2019-02-15T10:09:58.446Z,52.94
2019-02-15T10:12:26.759Z,52.27
2019-02-15T10:14:55.029Z,51.52
2019-02-15T10:17:23.298Z,51.66
2019-02-15T10:19:51.579Z,51.18
2019-02-15T10:22:20.620Z,50.91
2019-02-15T10:24:48.907Z,49.93
2019-02-15T10:27:17.170Z,50.35
2019-02-15T10:29:45.473Z,49.68
2019-02-15T10:32:13.757Z,50.59
2019-02-15T10:34:42.019Z,49.46
2019-02-15T10:37:10.327Z,49.00
2019-02-15T10:39:38.613Z,49.27
2019-02-15T10:42:06.991Z,50.06
2019-02-15T10:44:35.292Z,48.57
2019-02-15T10:47:03.563Z,49.42
2019-02-15T10:49:31.826Z,49.93
2019-02-15T10:52:00.117Z,48.91
2019-02-15T10:54:28.407Z,48.68
2019-02-15T10:56:56.671Z,49.24
2019-02-15T10:59:24.965Z,49.18
2019-02-15T11:01:53.264Z,48.85
2019-02-15T11:04:21.535Z,49.59
2019-02-15T11:06:49.854Z,49.14
2019-02-15T11:09:18.137Z,50.06
2019-02-15T11:11:46.424Z,49.77
2019-02-15T11:14:16.470Z,50.38
2019-02-15T11:16:47.272Z,50.78
2019-02-15T11:19:14.900Z,50.89
2019-02-15T11:21:43.194Z,50.21
2019-02-15T11:24:11.478Z,50.00
2019-02-15T11:26:39.890Z,51.52
2019-02-15T11:29:08.166Z,49.86
2019-02-15T11:31:36.440Z,51.07
2019-02-15T11:34:04.804Z,50.86
2019-02-15T11:36:33.059Z,50.90
2019-02-15T11:39:01.336Z,50.55
2019-02-15T11:41:29.625Z,48.84
2019-02-15T11:43:57.894Z,49.16
2019-02-15T11:46:26.166Z,48.97
2019-02-15T11:48:54.440Z,48.46
2019-02-15T11:51:22.705Z,47.91
2019-02-15T11:53:50.974Z,48.51
2019-02-15T11:56:19.236Z,46.37
2019-02-15T11:58:47.510Z,45.47
2019-02-15T12:01:15.813Z,46.42
2019-02-15T12:03:44.045Z,43.69
2019-02-15T12:06:12.308Z,43.87
2019-02-15T12:08:40.658Z,42.08
2019-02-15T12:11:10.999Z,43.99
2019-02-15T12:13:39.949Z,41.85
2019-02-15T12:16:12.921Z,40.43
2019-02-15T12:18:42.848Z,39.10
2019-02-15T12:21:11.227Z,38.80
2019-02-15T12:23:39.532Z,38.22
2019-02-15T12:26:07.811Z,36.89
2019-02-15T12:28:36.097Z,37.65
2019-02-15T12:31:04.601Z,36.03
2019-02-15T12:33:32.871Z,37.99
2019-02-15T12:36:01.185Z,36.48
2019-02-15T12:38:29.474Z,33.96
2019-02-15T12:40:57.806Z,35.19
2019-02-15T12:43:26.116Z,33.49
2019-02-15T12:45:54.393Z,33.16
2019-02-15T12:48:22.656Z,34.04
2019-02-15T12:50:50.916Z,32.84
2019-02-15T12:53:19.203Z,33.82
2019-02-15T12:55:47.498Z,32.94
2019-02-15T12:58:15.784Z,32.45
2019-02-15T13:00:44.140Z,30.89
2019-02-15T13:03:12.401Z,32.19
2019-02-15T13:05:40.691Z,31.01
2019-02-15T13:08:08.979Z,32.47
2019-02-15T13:10:38.901Z,32.60
2019-02-15T13:13:07.179Z,30.38
2019-02-15T13:15:35.469Z,32.78
2019-02-15T13:18:03.732Z,31.37
2019-02-15T13:20:31.993Z,30.33
2019-02-15T13:23:00.277Z,30.72
2019-02-15T13:25:36.559Z,28.89
2019-02-15T13:27:58.558Z,29.98
2019-02-15T13:30:26.805Z,32.17
2019-02-15T13:32:55.110Z,28.16
2019-02-15T13:35:24.388Z,28.19
2019-02-15T13:37:52.677Z,29.64
2019-02-15T13:40:20.924Z,30.69
2019-02-15T13:42:49.262Z,30.62
2019-02-15T13:45:17.594Z,30.91
2019-02-15T13:47:45.871Z,28.22
2019-02-15T13:50:15.480Z,28.76
2019-02-15T13:52:43.768Z,28.58
2019-02-15T13:55:12.021Z,28.02
2019-02-15T13:57:40.299Z,29.57
2019-02-15T14:00:12.755Z,29.72
2019-02-15T14:02:41.025Z,29.02
2019-02-15T14:05:11.139Z,27.55
2019-02-15T14:07:39.495Z,27.54
2019-02-15T14:10:10.310Z,27.02
2019-02-15T14:12:38.738Z,27.05
2019-02-15T14:15:08.560Z,27.81
2019-02-15T14:17:44.252Z,28.18
2019-02-15T14:20:13.846Z,27.59
2019-02-15T14:22:42.209Z,27.52
2019-02-15T14:25:13.039Z,28.69
2019-02-15T14:27:41.325Z,25.75
2019-02-15T14:30:13.990Z,26.91
2019-02-15T14:32:42.378Z,26.84
2019-02-15T14:35:14.191Z,25.03
2019-02-15T14:37:42.564Z,26.16
2019-02-15T14:40:14.446Z,27.52
2019-02-15T14:42:42.707Z,28.09
2019-02-15T14:45:12.472Z,27.86
2019-02-15T14:47:40.812Z,27.94
2019-02-15T14:50:10.294Z,27.19
2019-02-15T14:52:38.550Z,28.61
2019-02-15T14:55:10.753Z,28.01
2019-02-15T14:57:39.014Z,28.91
2019-02-15T15:00:10.185Z,26.40
2019-02-15T15:02:38.455Z,28.52
2019-02-15T15:05:07.456Z,29.22
2019-02-15T15:07:35.748Z,29.22
2019-02-15T15:10:05.853Z,31.39
2019-02-15T15:12:34.129Z,32.23
2019-02-15T15:15:02.457Z,31.96
2019-02-15T15:17:30.757Z,33.25
2019-02-15T15:19:59.171Z,33.63
2019-02-15T15:22:27.454Z,32.54
2019-02-15T15:24:55.707Z,33.60
2019-02-15T15:27:23.960Z,35.05
2019-02-15T15:29:52.244Z,35.21
2019-02-15T15:32:20.555Z,34.55
2019-02-15T15:34:48.854Z,35.41
2019-02-15T15:37:17.128Z,37.58
2019-02-15T15:39:45.403Z,36.88
2019-02-15T15:42:13.677Z,36.32
2019-02-15T15:44:41.944Z,35.96
2019-02-15T15:47:10.298Z,38.98
2019-02-15T15:49:38.569Z,38.35
2019-02-15T15:52:06.887Z,38.69
2019-02-15T15:54:35.152Z,38.71
2019-02-15T15:57:03.435Z,38.62
2019-02-15T15:59:31.696Z,37.82
2019-02-15T16:01:59.993Z,38.57
2019-02-15T16:04:28.258Z,38.41
2019-02-15T16:06:56.542Z,39.03
2019-02-15T16:09:24.801Z,38.51
2019-02-15T16:11:53.138Z,39.79
2019-02-15T16:14:21.433Z,38.22
2019-02-15T16:16:49.692Z,38.67
2019-02-15T16:19:17.974Z,39.47
2019-02-15T16:21:46.266Z,40.95
2019-02-15T16:24:14.519Z,41.35
2019-02-15T16:26:42.853Z,42.40
2019-02-15T16:29:11.065Z,40.43
2019-02-15T16:31:39.346Z,41.45
2019-02-15T16:34:07.582Z,40.85
2019-02-15T16:36:35.880Z,40.11
2019-02-15T16:39:05.083Z,41.49
2019-02-15T16:41:33.367Z,42.37
2019-02-15T16:44:01.634Z,41.38
2019-02-15T16:46:29.904Z,42.78
2019-02-15T16:48:58.162Z,42.88
2019-02-15T16:51:26.452Z,41.73
2019-02-15T16:53:54.735Z,42.02
2019-02-15T16:56:23.006Z,41.71
2019-02-15T16:58:51.266Z,42.12
2019-02-15T17:01:19.550Z,42.87
2019-02-15T17:03:48.083Z,43.26
2019-02-15T17:06:16.516Z,43.61
2019-02-15T17:08:44.802Z,44.27
2019-02-15T17:11:13.067Z,44.67
2019-02-15T17:13:41.352Z,44.11
2019-02-15T17:16:09.655Z,46.03
2019-02-15T17:18:37.916Z,46.72
2019-02-15T17:21:07.050Z,46.35
2019-02-15T17:23:35.386Z,45.07
2019-02-15T17:26:03.676Z,46.25
2019-02-15T17:28:31.962Z,45.39
2019-02-15T17:31:00.264Z,45.53
2019-02-15T17:33:28.534Z,47.15
2019-02-15T17:35:56.824Z,46.62
2019-02-15T17:38:25.119Z,46.42
2019-02-15T17:40:53.407Z,46.68
2019-02-15T17:43:21.705Z,46.95
2019-02-15T17:45:50.061Z,46.55
2019-02-15T17:48:18.344Z,46.51
2019-02-15T17:50:46.618Z,48.94
2019-02-15T17:53:14.926Z,48.33
2019-02-15T17:55:43.263Z,48.25
2019-02-15T17:58:11.594Z,48.13
2019-02-15T18:00:39.866Z,49.62
2019-02-15T18:03:08.143Z,48.70
2019-02-15T18:05:36.440Z,48.06
2019-02-15T18:08:04.730Z,49.39
2019-02-15T18:10:33.028Z,48.77
2019-02-15T18:13:01.271Z,49.85
2019-02-15T18:15:29.578Z,50.52
2019-02-15T18:17:57.847Z,50.84
2019-02-15T18:20:26.115Z,50.65
2019-02-15T18:22:54.428Z,51.23
2019-02-15T18:25:22.801Z,50.23
2019-02-15T18:27:51.096Z,51.53
2019-02-15T18:30:19.377Z,50.38
2019-02-15T18:32:47.658Z,50.24
2019-02-15T18:35:15.937Z,49.64
2019-02-15T18:37:44.232Z,49.85
2019-02-15T18:40:12.520Z,50.69
2019-02-15T18:42:40.829Z,51.14
2019-02-15T18:45:16.367Z,51.08
2019-02-15T18:47:44.658Z,51.38
2019-02-15T18:50:13.177Z,51.42
2019-02-15T18:52:41.479Z,51.49
2019-02-15T18:55:10.813Z,50.86
2019-02-15T18:57:39.091Z,51.90
2019-02-15T19:00:10.263Z,51.80
2019-02-15T19:02:38.568Z,52.18
2019-02-15T19:05:09.784Z,52.26
2019-02-15T19:07:38.075Z,52.75
2019-02-15T19:10:12.131Z,53.36
2019-02-15T19:12:40.386Z,52.75
2019-02-15T19:15:11.825Z,51.72
2019-02-15T19:17:40.107Z,52.31
2019-02-15T19:20:11.056Z,52.40
2019-02-15T19:22:39.404Z,53.68
2019-02-15T19:25:10.628Z,54.96
2019-02-15T19:27:38.905Z,54.20
2019-02-15T19:30:16.205Z,53.84
2019-02-15T19:32:44.665Z,55.03
2019-02-15T19:35:12.977Z,53.83
2019-02-15T19:37:41.266Z,53.90
2019-02-15T19:40:12.939Z,53.49
2019-02-15T19:42:42.774Z,53.83
2019-02-15T19:45:12.210Z,54.08
2019-02-15T19:47:40.511Z,53.68
2019-02-15T19:50:12.042Z,53.70
2019-02-15T19:52:40.726Z,53.83
2019-02-15T19:55:10.350Z,53.54
2019-02-15T19:57:38.642Z,54.11
2019-02-15T20:00:20.522Z,53.72
2019-02-15T20:02:48.816Z,53.99
2019-02-15T20:05:17.189Z,53.53
2019-02-15T20:07:45.500Z,55.37
2019-02-15T20:10:16.371Z,55.58
2019-02-15T20:12:44.661Z,55.20
2019-02-15T20:15:14.106Z,55.33
2019-02-15T20:17:42.386Z,55.02
2019-02-15T20:20:15.197Z,56.11
2019-02-15T20:22:43.446Z,56.00
2019-02-15T20:25:13.061Z,55.55
2019-02-15T20:27:41.350Z,55.00
2019-02-15T20:30:15.151Z,54.76
2019-02-15T20:32:43.490Z,54.34
2019-02-15T20:35:13.600Z,54.87
2019-02-15T20:37:42.302Z,54.75
2019-02-15T20:40:12.467Z,53.59
2019-02-15T20:42:41.640Z,54.33
2019-02-15T20:45:13.181Z,54.84
2019-02-15T20:47:41.548Z,54.64
2019-02-15T20:50:11.259Z,55.43
2019-02-15T20:52:39.536Z,54.39
2019-02-15T20:55:13.779Z,53.94
2019-02-15T20:57:42.054Z,53.77
2019-02-15T21:00:13.430Z,54.13
2019-02-15T21:02:41.730Z,54.15
2019-02-15T21:05:10.783Z,54.66
2019-02-15T21:07:39.066Z,55.14
2019-02-15T21:10:12.694Z,55.07
2019-02-15T21:12:40.984Z,55.26
2019-02-15T21:15:11.506Z,53.90
2019-02-15T21:17:39.776Z,55.33
2019-02-15T21:20:13.238Z,55.15
2019-02-15T21:22:41.534Z,55.16
2019-02-15T21:25:16.793Z,54.23
2019-02-15T21:27:45.083Z,54.79
2019-02-15T21:30:17.754Z,54.69
2019-02-15T21:32:46.068Z,54.96
2019-02-15T21:35:14.571Z,56.11
2019-02-15T21:37:42.925Z,55.42
2019-02-15T21:40:20.133Z,55.64
2019-02-15T21:42:48.425Z,56.11
2019-02-15T21:45:16.692Z,57.81
2019-02-15T21:47:44.950Z,56.45
2019-02-15T21:50:17.256Z,55.92
2019-02-15T21:52:44.573Z,57.20
2019-02-15T21:55:39.116Z,55.71
2019-02-15T21:58:07.490Z,55.21
2019-02-15T22:00:35.759Z,55.64
2019-02-15T22:03:04.179Z,55.23
2019-02-15T22:05:32.439Z,57.30
2019-02-15T22:08:00.720Z,56.95
2019-02-15T22:10:29.053Z,56.95
2019-02-15T22:12:57.439Z,56.85
2019-02-15T22:15:25.762Z,57.53
2019-02-15T22:17:54.110Z,57.21
2019-02-15T22:20:26.620Z,56.95
2019-02-15T22:22:52.483Z,56.87
2019-02-15T22:25:20.794Z,56.61
2019-02-15T22:27:49.082Z,56.05
2019-02-15T22:30:18.697Z,57.82
2019-02-15T22:32:47.049Z,56.81
2019-02-15T22:35:15.326Z,57.04
2019-02-15T22:37:43.621Z,56.54
2019-02-15T22:40:26.176Z,55.13
2019-02-15T22:42:54.474Z,57.68
2019-02-15T22:45:22.747Z,56.99
2019-02-15T22:47:51.010Z,57.61
2019-02-15T22:50:19.309Z,56.94
2019-02-15T22:52:47.582Z,57.14
2019-02-15T22:55:15.885Z,57.65
2019-02-15T22:57:44.225Z,56.01
2019-02-15T23:00:40.458Z,55.59
2019-02-15T23:03:08.800Z,57.15
2019-02-15T23:05:37.140Z,55.30
2019-02-15T23:08:05.430Z,56.89
2019-02-15T23:10:33.715Z,57.39
2019-02-15T23:13:02.032Z,57.26
2019-02-15T23:15:30.303Z,56.66
2019-02-15T23:17:58.580Z,55.87
2019-02-15T23:20:26.845Z,55.82
2019-02-15T23:22:55.193Z,57.26
2019-02-15T23:25:25.036Z,56.64
2019-02-15T23:27:53.445Z,56.91
2019-02-15T23:30:21.845Z,57.07
2019-02-15T23:32:50.215Z,56.42
2019-02-15T23:35:18.505Z,57.92
2019-02-15T23:37:46.766Z,56.89
2019-02-15T23:40:15.053Z,56.25
2019-02-15T23:42:43.309Z,55.34
2019-02-15T23:45:11.675Z,56.01
2019-02-15T23:47:39.961Z,55.95
2019-02-15T23:50:09.504Z,56.61
2019-02-15T23:52:37.776Z,58.04
2019-02-15T23:55:06.339Z,57.25
2019-02-15T23:57:34.602Z,57.00
